Terminal Aerodrome Forecast
Issued by NWS Central Illinois

Home | Current Version | Previous Version | Text Only | Print | Product List | Glossary On
Versions: 1 2 3 4 5 6 7 8 9 10 11 12 13 14 15 16 17 18 19 20
750
FTUS43 KILX 291747
TAFSPI
TAF
KSPI 291747Z 2918/3018 07012G20KT 3SM -RA BR OVC015
     FM292000 10014G22KT P6SM SCT015 OVC060
     FM300500 12014G22KT 4SM -RA BR OVC015
     FM300800 12014G24KT 4SM -RA VCTS OVC008CB
     FM301500 13012KT 6SM BR VCSH OVC008=

USA.gov is the U.S. government's official web portal to all federal, state and local government web resources and services.